createdAt,value
2019-03-05T00:02:12.835Z,9.80
2019-03-05T00:04:43.194Z,11.40
2019-03-05T00:07:12.628Z,10.97
2019-03-05T00:09:42.131Z,9.83
2019-03-05T00:12:11.738Z,10.23
2019-03-05T00:14:41.720Z,9.07
2019-03-05T00:17:11.200Z,8.53
2019-03-05T00:19:40.636Z,7.60
2019-03-05T00:22:10.094Z,7.60
2019-03-05T00:25:06.808Z,6.70
2019-03-05T00:28:06.449Z,7.07
2019-03-05T00:30:45.549Z,5.07
2019-03-05T00:33:45.602Z,5.30
2019-03-05T00:36:40.754Z,5.00
2019-03-05T00:39:25.701Z,5.60
2019-03-05T00:42:44.025Z,5.50
2019-03-05T00:45:26.892Z,4.70
2019-03-05T00:48:30.190Z,4.70
2019-03-05T00:51:37.490Z,5.00
2019-03-05T00:54:54.245Z,4.67
2019-03-05T00:57:47.296Z,3.90
2019-03-05T01:00:47.594Z,4.30
2019-03-05T01:04:10.130Z,4.33
2019-03-05T01:06:40.010Z,3.97
2019-03-05T01:09:17.299Z,3.97
2019-03-05T01:11:47.369Z,3.63
2019-03-05T01:14:17.429Z,3.73
2019-03-05T01:16:47.500Z,4.07
2019-03-05T01:19:16.930Z,3.87
2019-03-05T01:21:46.361Z,3.50
2019-03-05T01:24:15.818Z,3.17
2019-03-05T01:26:45.344Z,2.90
2019-03-05T01:29:14.769Z,3.17
2019-03-05T01:32:05.985Z,2.50
2019-03-05T01:34:40.651Z,2.70
2019-03-05T01:37:10.202Z,3.13
2019-03-05T01:39:55.099Z,2.30
2019-03-05T01:42:24.532Z,2.70
2019-03-05T01:44:53.957Z,2.83
2019-03-05T01:47:23.444Z,2.57
2019-03-05T01:49:52.846Z,2.00
2019-03-05T01:52:22.314Z,3.00
2019-03-05T01:54:51.788Z,2.73
2019-03-05T01:57:21.691Z,3.40
2019-03-05T01:59:51.427Z,2.40
2019-03-05T02:02:21.032Z,3.30
2019-03-05T02:04:50.739Z,5.03
2019-03-05T02:07:20.449Z,3.37
2019-03-05T02:09:50.102Z,3.40
2019-03-05T02:12:19.559Z,3.90
2019-03-05T02:14:49.418Z,2.90
2019-03-05T02:17:18.875Z,3.03
2019-03-05T02:19:49.764Z,4.20
2019-03-05T02:22:40.212Z,4.50
2019-03-05T02:25:19.610Z,3.13
2019-03-05T02:28:35.136Z,3.80
2019-03-05T02:31:13.376Z,4.80
2019-03-05T02:34:17.166Z,4.47
2019-03-05T02:37:30.409Z,4.37
2019-03-05T02:40:32.075Z,4.13
2019-03-05T02:43:48.508Z,3.90
2019-03-05T02:46:50.082Z,4.13
2019-03-05T02:49:43.070Z,4.53
2019-03-05T02:52:56.206Z,4.33
2019-03-05T02:55:56.537Z,4.63
2019-03-05T02:58:24.345Z,4.87
2019-03-05T03:01:10.643Z,4.83
2019-03-05T03:03:43.954Z,4.13
2019-03-05T03:06:17.675Z,3.80
2019-03-05T03:08:47.134Z,3.50
2019-03-05T03:11:16.555Z,3.70
2019-03-05T03:13:46.050Z,4.13
2019-03-05T03:16:15.452Z,4.43
2019-03-05T03:18:45.011Z,3.70
2019-03-05T03:21:14.431Z,3.93
2019-03-05T03:23:44.237Z,3.50
2019-03-05T03:26:13.683Z,3.77
2019-03-05T03:28:43.557Z,3.97
2019-03-05T03:31:13.743Z,2.90
2019-03-05T03:33:43.268Z,3.00
2019-03-05T03:36:12.699Z,2.87
2019-03-05T03:38:42.220Z,2.93
2019-03-05T03:41:11.762Z,2.00
2019-03-05T03:43:41.580Z,2.13
2019-03-05T03:46:11.014Z,2.43
2019-03-05T03:48:40.905Z,2.80
2019-03-05T03:51:11.212Z,2.80
2019-03-05T03:53:40.696Z,4.63
2019-03-05T03:56:10.193Z,3.80
2019-03-05T03:58:39.641Z,4.50
2019-03-05T04:01:09.284Z,4.80
2019-03-05T04:03:38.706Z,4.80
2019-03-05T04:06:08.347Z,5.10
2019-03-05T04:08:37.797Z,4.43
2019-03-05T04:11:07.210Z,4.37
2019-03-05T04:13:36.714Z,4.83
2019-03-05T04:16:06.207Z,5.23
2019-03-05T04:18:35.650Z,5.70
2019-03-05T04:21:05.152Z,4.47
2019-03-05T04:23:35.162Z,4.97
2019-03-05T04:26:04.627Z,5.20
2019-03-05T04:28:34.100Z,4.70
2019-03-05T04:31:03.994Z,4.30
2019-03-05T04:33:33.458Z,4.67
2019-03-05T04:36:02.862Z,4.77
2019-03-05T04:38:32.634Z,4.80
2019-03-05T04:41:02.059Z,4.57
2019-03-05T04:43:31.506Z,4.50
2019-03-05T04:46:10.721Z,4.63
2019-03-05T04:48:40.758Z,4.53
2019-03-05T04:51:29.224Z,5.00
2019-03-05T04:53:59.681Z,4.00
2019-03-05T04:56:29.658Z,4.30
2019-03-05T04:58:59.132Z,5.30
2019-03-05T05:01:28.558Z,4.87
2019-03-05T05:03:58.324Z,4.87
2019-03-05T05:06:27.930Z,3.67
2019-03-05T05:08:57.381Z,4.27
2019-03-05T05:11:27.114Z,4.20
2019-03-05T05:13:56.948Z,4.53
2019-03-05T05:16:26.795Z,4.30
2019-03-05T05:18:56.838Z,4.67
2019-03-05T05:21:26.304Z,4.30
2019-03-05T05:23:55.898Z,4.30
2019-03-05T05:26:25.783Z,4.90
2019-03-05T05:28:55.634Z,4.10
2019-03-05T05:31:25.082Z,4.20
2019-03-05T05:33:54.497Z,4.50
2019-03-05T05:36:24.519Z,3.80
2019-03-05T05:38:54.010Z,3.63
2019-03-05T05:41:23.770Z,4.67
2019-03-05T05:43:53.204Z,4.23
2019-03-05T05:46:22.671Z,4.40
2019-03-05T05:48:52.366Z,3.93
2019-03-05T05:51:21.820Z,5.17
2019-03-05T05:53:51.249Z,3.90
2019-03-05T05:56:20.674Z,3.90
2019-03-05T05:58:50.082Z,4.37
2019-03-05T06:01:20.079Z,3.73
2019-03-05T06:03:49.944Z,3.50
2019-03-05T06:06:19.427Z,3.30
2019-03-05T06:08:49.067Z,3.83
2019-03-05T06:11:18.670Z,4.00
2019-03-05T06:13:48.213Z,3.47
2019-03-05T06:16:18.158Z,3.73
2019-03-05T06:18:47.851Z,4.60
2019-03-05T06:21:17.863Z,5.13
2019-03-05T06:23:48.635Z,4.80
2019-03-05T06:26:23.925Z,4.47
2019-03-05T06:28:53.353Z,5.00
2019-03-05T06:31:22.791Z,5.33
2019-03-05T06:33:52.635Z,4.63
2019-03-05T06:36:22.103Z,5.30
2019-03-05T06:38:51.614Z,5.13
2019-03-05T06:41:21.110Z,5.63
2019-03-05T06:43:50.618Z,6.47
2019-03-05T06:46:20.096Z,6.03
2019-03-05T06:48:49.974Z,5.80
2019-03-05T06:51:19.884Z,5.80
2019-03-05T06:53:49.338Z,6.00
2019-03-05T06:56:18.867Z,6.27
2019-03-05T06:58:48.349Z,5.20
2019-03-05T07:01:17.855Z,5.77
2019-03-05T07:03:47.342Z,5.50
2019-03-05T07:06:50.805Z,5.10
2019-03-05T07:09:46.355Z,5.73
2019-03-05T07:12:54.240Z,4.70
2019-03-05T07:15:50.643Z,1.83
2019-03-05T07:18:36.063Z,2.80
2019-03-05T07:21:53.230Z,2.70
2019-03-05T07:24:50.595Z,3.70
2019-03-05T07:27:53.176Z,5.90
2019-03-05T07:30:24.450Z,6.17
2019-03-05T07:32:54.978Z,6.60
2019-03-05T07:35:26.438Z,6.20
2019-03-05T07:37:56.442Z,6.73
2019-03-05T07:40:26.352Z,6.83
2019-03-05T07:42:55.826Z,7.03
2019-03-05T07:45:25.378Z,7.93
2019-03-05T07:47:55.187Z,6.57
2019-03-05T07:50:24.791Z,6.30
2019-03-05T07:52:54.283Z,6.23
2019-03-05T07:55:24.095Z,5.93
2019-03-05T07:57:53.591Z,6.33
2019-03-05T08:00:23.397Z,5.87
2019-03-05T08:02:52.825Z,5.77
2019-03-05T08:05:22.439Z,6.17
2019-03-05T08:07:52.250Z,6.17
2019-03-05T08:10:26.320Z,5.70
2019-03-05T08:13:37.121Z,5.60
2019-03-05T08:16:21.806Z,4.83
2019-03-05T08:18:51.288Z,5.40
2019-03-05T08:21:20.745Z,4.70
2019-03-05T08:23:50.300Z,4.60
2019-03-05T08:26:19.904Z,4.40
2019-03-05T08:28:49.354Z,4.67
2019-03-05T08:31:19.205Z,4.47
2019-03-05T08:33:49.831Z,5.00
2019-03-05T08:36:19.515Z,5.00
2019-03-05T08:38:49.324Z,5.30
2019-03-05T08:41:18.769Z,4.90
2019-03-05T08:43:48.622Z,5.37
2019-03-05T08:46:18.052Z,6.30
2019-03-05T08:48:47.514Z,5.97
2019-03-05T08:51:17.183Z,6.67
2019-03-05T08:53:49.782Z,6.40
2019-03-05T08:56:17.873Z,5.93
2019-03-05T08:58:47.278Z,6.17
2019-03-05T09:01:17.247Z,5.53
2019-03-05T09:03:47.199Z,5.37
2019-03-05T09:06:16.644Z,5.70
2019-03-05T09:08:46.128Z,6.47
2019-03-05T09:11:15.580Z,5.90
2019-03-05T09:13:45.158Z,6.27
2019-03-05T09:16:14.625Z,6.33
2019-03-05T09:18:44.067Z,7.00
2019-03-05T09:21:14.078Z,5.30
2019-03-05T09:23:43.522Z,7.33
2019-03-05T09:26:13.018Z,5.83
2019-03-05T09:28:42.470Z,5.83
2019-03-05T09:31:12.407Z,5.70
2019-03-05T09:33:41.890Z,6.67
2019-03-05T09:36:11.446Z,6.10
2019-03-05T09:38:40.898Z,5.97
2019-03-05T09:41:10.619Z,6.30
2019-03-05T09:43:40.229Z,5.60
2019-03-05T09:46:10.074Z,7.17
2019-03-05T09:48:39.975Z,7.30
2019-03-05T09:51:09.385Z,6.10
2019-03-05T09:53:38.774Z,6.83
2019-03-05T09:56:08.644Z,6.13
2019-03-05T09:58:38.563Z,6.97
2019-03-05T10:01:08.446Z,5.60
2019-03-05T10:03:37.915Z,6.07
2019-03-05T10:06:07.849Z,5.20
2019-03-05T10:08:37.708Z,5.53
2019-03-05T10:11:07.280Z,6.43
2019-03-05T10:13:37.083Z,6.20
2019-03-05T10:16:07.214Z,6.00
2019-03-05T10:18:39.233Z,6.00
2019-03-05T10:21:08.006Z,6.37
2019-03-05T10:23:37.466Z,6.20
2019-03-05T10:26:06.940Z,5.53
2019-03-05T10:28:36.574Z,6.00
2019-03-05T10:31:06.666Z,5.90
2019-03-05T10:33:36.152Z,6.00
2019-03-05T10:36:06.143Z,6.27
2019-03-05T10:38:35.614Z,6.97
2019-03-05T10:41:05.339Z,7.10
2019-03-05T10:43:35.066Z,6.00
2019-03-05T10:46:04.812Z,6.83
2019-03-05T10:48:34.294Z,7.00
2019-03-05T10:51:04.110Z,6.77
2019-03-05T10:53:33.894Z,6.50
2019-03-05T10:56:03.386Z,6.83
2019-03-05T10:58:34.407Z,7.20
2019-03-05T11:01:05.864Z,6.63
2019-03-05T11:03:35.638Z,6.97
2019-03-05T11:06:07.647Z,7.40
2019-03-05T11:08:37.135Z,7.03
2019-03-05T11:11:13.430Z,6.70
2019-03-05T11:13:38.114Z,7.20
2019-03-05T11:16:08.042Z,7.00
2019-03-05T11:18:39.471Z,7.83
2019-03-05T11:21:09.074Z,7.57
2019-03-05T11:23:38.917Z,7.60
2019-03-05T11:26:08.726Z,7.50
2019-03-05T11:28:38.517Z,6.70
2019-03-05T11:31:08.550Z,6.73
2019-03-05T11:33:38.053Z,6.37
2019-03-05T11:36:07.545Z,6.20
2019-03-05T11:38:36.998Z,6.20
2019-03-05T11:41:06.506Z,6.17
2019-03-05T11:43:35.996Z,5.73
2019-03-05T11:46:08.582Z,7.10
2019-03-05T11:48:38.334Z,6.07
2019-03-05T11:51:07.820Z,6.30
2019-03-05T11:53:37.282Z,6.00
2019-03-05T11:56:06.990Z,6.33
2019-03-05T11:58:36.434Z,6.33
2019-03-05T12:01:26.255Z,6.80
2019-03-05T12:03:55.775Z,7.00
2019-03-05T12:06:25.539Z,5.80
2019-03-05T12:08:54.951Z,6.00
2019-03-05T12:11:24.528Z,5.37
2019-03-05T12:13:55.290Z,5.90
2019-03-05T12:16:25.071Z,4.60
2019-03-05T12:18:54.650Z,4.60
2019-03-05T12:21:24.274Z,5.17
2019-03-05T12:23:53.705Z,5.00
2019-03-05T12:26:23.152Z,5.10
2019-03-05T12:28:52.647Z,5.80
2019-03-05T12:31:22.432Z,5.30
2019-03-05T12:33:52.377Z,5.53
2019-03-05T12:36:21.899Z,5.10
2019-03-05T12:38:51.568Z,4.90
2019-03-05T12:41:21.478Z,4.30
2019-03-05T12:43:50.943Z,4.10
2019-03-05T12:46:22.424Z,4.90
2019-03-05T12:48:52.648Z,4.77
2019-03-05T12:51:22.176Z,4.83
2019-03-05T12:53:51.655Z,4.50
2019-03-05T12:56:24.107Z,4.07
2019-03-05T12:58:52.178Z,3.90
2019-03-05T13:01:21.674Z,3.60
2019-03-05T13:03:51.162Z,3.47
2019-03-05T13:06:20.766Z,3.80
2019-03-05T13:08:50.718Z,4.73
2019-03-05T13:11:20.208Z,4.20
2019-03-05T13:13:51.352Z,4.03
2019-03-05T13:16:21.466Z,4.73
2019-03-05T13:18:50.958Z,4.80
2019-03-05T13:21:20.416Z,4.13
2019-03-05T13:23:51.649Z,3.60
2019-03-05T13:26:21.179Z,3.60
2019-03-05T13:28:50.647Z,3.47
2019-03-05T13:31:20.166Z,3.80
2019-03-05T13:33:49.676Z,2.90
2019-03-05T13:36:19.122Z,3.60
2019-03-05T13:38:48.952Z,3.70
2019-03-05T13:41:18.366Z,3.43
2019-03-05T13:43:47.853Z,3.70
2019-03-05T13:46:17.310Z,3.43
2019-03-05T13:49:40.671Z,3.70
2019-03-05T13:52:35.986Z,3.50
2019-03-05T13:55:49.051Z,3.77
2019-03-05T13:58:56.561Z,3.27
2019-03-05T14:01:28.438Z,3.10
2019-03-05T14:04:08.082Z,3.33
2019-03-05T14:07:23.050Z,2.93
2019-03-05T14:09:53.007Z,3.10
2019-03-05T14:12:22.508Z,3.00
2019-03-05T14:14:52.013Z,2.80
2019-03-05T14:17:26.523Z,3.53
2019-03-05T14:19:55.977Z,3.60
2019-03-05T14:22:26.247Z,2.50
2019-03-05T14:25:02.075Z,2.83
2019-03-05T14:27:27.129Z,2.57
2019-03-05T14:29:56.617Z,2.80
2019-03-05T14:32:26.254Z,2.90
2019-03-05T14:35:09.069Z,3.07
2019-03-05T14:37:38.628Z,2.70
2019-03-05T14:40:23.648Z,2.57
2019-03-05T14:42:42.487Z,2.33
2019-03-05T14:45:16.910Z,2.80
2019-03-05T14:47:46.385Z,2.73
2019-03-05T14:50:15.988Z,3.23
2019-03-05T14:52:45.810Z,3.87
2019-03-05T14:55:15.891Z,2.90
2019-03-05T14:57:45.765Z,3.10
2019-03-05T15:00:17.197Z,3.60
2019-03-05T15:02:46.827Z,3.13
2019-03-05T15:05:16.301Z,3.97
2019-03-05T15:07:46.076Z,3.63
2019-03-05T15:10:15.568Z,3.20
2019-03-05T15:12:45.204Z,3.10
2019-03-05T15:15:26.273Z,3.10
2019-03-05T15:17:55.758Z,3.40
2019-03-05T15:20:25.297Z,3.60
2019-03-05T15:22:54.762Z,2.70
2019-03-05T15:25:24.377Z,2.63
2019-03-05T15:27:53.881Z,2.47
2019-03-05T15:30:24.778Z,3.00
2019-03-05T15:32:54.796Z,2.70
2019-03-05T15:35:24.327Z,2.53
2019-03-05T15:37:53.794Z,2.10
2019-03-05T15:40:23.610Z,2.80
2019-03-05T15:42:53.191Z,2.37
2019-03-05T15:45:22.995Z,2.50
2019-03-05T15:47:52.558Z,2.07
2019-03-05T15:50:22.076Z,2.97
2019-03-05T15:52:51.566Z,2.50
2019-03-05T15:55:21.146Z,2.50
2019-03-05T15:57:51.067Z,2.87
2019-03-05T16:00:23.876Z,3.03
2019-03-05T16:02:53.716Z,3.07
2019-03-05T16:05:24.628Z,2.90
2019-03-05T16:07:54.142Z,2.90
2019-03-05T16:10:23.739Z,3.07
2019-03-05T16:12:53.190Z,2.60
2019-03-05T16:15:22.831Z,2.30
2019-03-05T16:17:54.328Z,2.50
2019-03-05T16:20:25.878Z,2.43
2019-03-05T16:22:56.748Z,2.40
2019-03-05T16:25:26.326Z,2.53
2019-03-05T16:27:55.792Z,3.73
2019-03-05T16:31:02.402Z,2.50
2019-03-05T16:33:38.680Z,3.07
2019-03-05T16:36:30.585Z,2.30
2019-03-05T16:39:19.804Z,2.70
2019-03-05T16:42:20.395Z,4.20
2019-03-05T16:45:07.315Z,3.00
2019-03-05T16:47:55.733Z,2.70
2019-03-05T16:50:43.040Z,2.70
2019-03-05T16:53:29.546Z,2.93
2019-03-05T16:56:11.315Z,2.97
2019-03-05T16:59:03.461Z,3.80
2019-03-05T17:01:47.939Z,3.40
2019-03-05T17:04:34.170Z,4.00
2019-03-05T17:07:28.671Z,4.50
2019-03-05T17:10:17.158Z,4.80
2019-03-05T17:13:01.940Z,7.13
2019-03-05T17:15:31.820Z,5.57
2019-03-05T17:18:01.490Z,7.60
2019-03-05T17:20:31.406Z,8.83
2019-03-05T17:23:01.693Z,8.20
2019-03-05T17:25:32.139Z,8.03
2019-03-05T17:28:02.098Z,7.90
2019-03-05T17:30:31.730Z,6.80
2019-03-05T17:33:01.262Z,6.70
2019-03-05T17:35:31.064Z,5.90
2019-03-05T17:38:00.502Z,5.20
2019-03-05T17:40:29.995Z,5.80
2019-03-05T17:42:59.371Z,6.10
2019-03-05T17:45:28.924Z,5.47
2019-03-05T17:47:58.858Z,5.30
2019-03-05T17:50:28.436Z,5.67
2019-03-05T17:52:57.882Z,5.00
2019-03-05T17:55:27.556Z,5.57
2019-03-05T17:57:56.998Z,6.87
2019-03-05T18:00:31.437Z,5.70
2019-03-05T18:03:00.886Z,5.40
2019-03-05T18:05:30.777Z,6.60
2019-03-05T18:08:00.727Z,6.23
2019-03-05T18:10:30.233Z,5.80
2019-03-05T18:13:00.530Z,6.60
2019-03-05T18:15:30.939Z,5.43
2019-03-05T18:18:00.569Z,5.43
2019-03-05T18:20:30.064Z,4.60
2019-03-05T18:22:59.685Z,5.70
2019-03-05T18:25:29.302Z,6.87
2019-03-05T18:27:59.175Z,7.80
2019-03-05T18:30:29.083Z,14.30
2019-03-05T18:32:58.853Z,10.30
2019-03-05T18:35:28.375Z,7.70
2019-03-05T18:37:58.050Z,7.97
2019-03-05T18:40:27.513Z,7.13
2019-03-05T18:42:56.990Z,7.93
2019-03-05T18:45:28.011Z,7.30
2019-03-05T18:47:57.485Z,8.00
2019-03-05T18:50:27.007Z,8.13
2019-03-05T18:52:56.733Z,8.00
2019-03-05T18:55:26.159Z,8.20
2019-03-05T18:57:55.662Z,8.67
2019-03-05T19:00:25.102Z,8.50
2019-03-05T19:02:55.206Z,9.57
2019-03-05T19:05:25.015Z,8.93
2019-03-05T19:07:55.014Z,9.03
2019-03-05T19:10:25.226Z,8.90
2019-03-05T19:12:54.634Z,9.90
2019-03-05T19:15:24.239Z,9.30
2019-03-05T19:17:53.724Z,9.10
2019-03-05T19:20:24.120Z,9.20
2019-03-05T19:22:53.570Z,9.00
2019-03-05T19:25:25.133Z,8.70
2019-03-05T19:27:55.063Z,10.03
2019-03-05T19:30:27.263Z,10.40
2019-03-05T19:32:56.940Z,9.47
2019-03-05T19:35:26.654Z,9.47
2019-03-05T19:37:56.301Z,10.97
2019-03-05T19:40:28.329Z,10.97
2019-03-05T19:42:57.992Z,9.30
2019-03-05T19:45:28.045Z,10.03
2019-03-05T19:47:58.223Z,10.43
2019-03-05T19:50:27.834Z,10.50
2019-03-05T19:52:58.142Z,10.40
2019-03-05T19:55:27.845Z,11.03
2019-03-05T19:58:10.409Z,11.70
2019-03-05T20:00:47.828Z,10.53
2019-03-05T20:03:20.339Z,10.00
2019-03-05T20:05:50.045Z,9.97
2019-03-05T20:08:20.771Z,10.97
2019-03-05T20:10:50.450Z,10.30
2019-03-05T20:13:20.639Z,10.37
2019-03-05T20:15:50.711Z,9.47
2019-03-05T20:18:21.842Z,9.50
2019-03-05T20:20:54.335Z,10.10
2019-03-05T20:23:24.588Z,11.13
2019-03-05T20:25:56.280Z,9.77
2019-03-05T20:28:25.914Z,11.07
2019-03-05T20:30:56.049Z,10.10
2019-03-05T20:33:26.289Z,10.57
2019-03-05T20:35:57.132Z,10.77
2019-03-05T20:38:26.950Z,9.73
2019-03-05T20:40:56.640Z,10.40
2019-03-05T20:43:26.377Z,10.43
2019-03-05T20:45:59.666Z,10.50
2019-03-05T20:48:29.330Z,10.60
2019-03-05T20:50:59.562Z,10.87
2019-03-05T20:53:29.242Z,13.90
2019-03-05T20:55:59.235Z,14.40
2019-03-05T20:58:29.219Z,12.47
2019-03-05T21:00:59.428Z,10.33
2019-03-05T21:03:29.658Z,9.77
2019-03-05T21:06:00.236Z,8.57
2019-03-05T21:08:29.821Z,8.40
2019-03-05T21:10:59.627Z,9.17
2019-03-05T21:13:29.507Z,9.20
2019-03-05T21:15:59.275Z,9.10
2019-03-05T21:18:29.212Z,7.87
2019-03-05T21:20:58.637Z,8.23
2019-03-05T21:23:28.948Z,8.40
2019-03-05T21:25:58.878Z,8.33
2019-03-05T21:28:29.203Z,7.67
2019-03-05T21:30:58.822Z,7.20
2019-03-05T21:33:28.628Z,7.30
2019-03-05T21:35:58.225Z,7.80
2019-03-05T21:38:27.953Z,8.50
2019-03-05T21:40:58.461Z,6.67
2019-03-05T21:43:28.479Z,6.87
2019-03-05T21:46:00.650Z,6.67
2019-03-05T21:48:31.125Z,6.73
2019-03-05T21:51:00.694Z,7.40
2019-03-05T21:53:30.314Z,5.57
2019-03-05T21:56:00.401Z,6.37
2019-03-05T21:58:30.884Z,6.50
2019-03-05T22:01:00.517Z,6.07
2019-03-05T22:03:30.106Z,5.97
2019-03-05T22:06:04.063Z,5.40
2019-03-05T22:08:33.614Z,5.80
2019-03-05T22:11:03.678Z,6.10
2019-03-05T22:13:33.406Z,5.53
2019-03-05T22:16:09.326Z,5.10
2019-03-05T22:18:40.579Z,5.20
2019-03-05T22:21:10.815Z,5.10
2019-03-05T22:23:40.768Z,4.63
2019-03-05T22:26:10.869Z,5.87
2019-03-05T22:28:41.022Z,5.07
2019-03-05T22:31:10.594Z,4.17
2019-03-05T22:33:40.042Z,4.67
2019-03-05T22:36:09.690Z,5.43
2019-03-05T22:38:39.389Z,6.03
2019-03-05T22:41:09.378Z,4.73
2019-03-05T22:43:39.622Z,4.53
2019-03-05T22:46:09.135Z,4.40
2019-03-05T22:48:38.868Z,4.23
2019-03-05T22:51:08.303Z,5.90
2019-03-05T22:53:37.809Z,5.17
2019-03-05T22:56:07.337Z,5.73
2019-03-05T22:58:37.603Z,5.27
2019-03-05T23:01:17.399Z,5.23
2019-03-05T23:03:54.794Z,5.37
2019-03-05T23:06:24.754Z,4.97
2019-03-05T23:08:54.240Z,4.80
2019-03-05T23:11:23.703Z,3.97
2019-03-05T23:13:54.011Z,4.43
2019-03-05T23:16:23.998Z,3.87
2019-03-05T23:18:53.558Z,3.50
2019-03-05T23:21:23.494Z,4.70
2019-03-05T23:23:53.196Z,4.13
2019-03-05T23:26:22.838Z,3.47
2019-03-05T23:28:52.376Z,3.90
2019-03-05T23:31:21.977Z,4.00
2019-03-05T23:33:52.164Z,4.40
2019-03-05T23:36:22.042Z,4.80
2019-03-05T23:38:51.585Z,4.70
2019-03-05T23:41:21.140Z,5.40
2019-03-05T23:43:50.613Z,5.57
2019-03-05T23:46:20.064Z,4.87
2019-03-05T23:48:49.963Z,4.73
2019-03-05T23:51:19.594Z,5.00
2019-03-05T23:53:49.115Z,5.70
2019-03-05T23:56:18.953Z,6.33
2019-03-05T23:58:48.452Z,5.60
